createdAt,value
2019-02-26T00:02:02.585Z,14.70
2019-02-26T00:04:36.873Z,14.60
2019-02-26T00:07:09.183Z,14.60
2019-02-26T00:09:41.580Z,14.50
2019-02-26T00:12:13.982Z,14.50
2019-02-26T00:14:47.560Z,14.50
2019-02-26T00:17:21.823Z,14.50
2019-02-26T00:19:54.398Z,14.40
2019-02-26T00:22:26.817Z,14.40
2019-02-26T00:25:00.913Z,14.40
2019-02-26T00:27:35.037Z,14.40
2019-02-26T00:30:11.185Z,14.40
2019-02-26T00:32:43.350Z,14.30
2019-02-26T00:35:16.491Z,14.30
2019-02-26T00:37:51.103Z,14.30
2019-02-26T00:40:25.065Z,14.30
2019-02-26T00:42:59.565Z,14.20
2019-02-26T00:45:33.555Z,14.20
2019-02-26T00:48:05.640Z,14.20
2019-02-26T00:50:39.819Z,14.10
2019-02-26T00:53:12.305Z,14.10
2019-02-26T00:55:44.712Z,14.10
2019-02-26T00:58:17.100Z,14.10
2019-02-26T01:00:49.522Z,14.00
2019-02-26T01:03:21.912Z,14.00
2019-02-26T01:05:54.234Z,14.00
2019-02-26T01:08:26.612Z,14.00
2019-02-26T01:10:59.918Z,14.00
2019-02-26T01:13:33.084Z,13.90
2019-02-26T01:16:05.508Z,14.00
2019-02-26T01:18:37.866Z,14.00
2019-02-26T01:21:10.263Z,13.90
2019-02-26T01:23:42.723Z,13.90
2019-02-26T01:26:15.147Z,14.00
2019-02-26T01:28:49.003Z,13.90
2019-02-26T01:31:24.688Z,13.80
2019-02-26T01:33:57.376Z,13.80
2019-02-26T01:36:29.936Z,13.80
2019-02-26T01:39:02.325Z,13.70
2019-02-26T01:41:36.681Z,13.80
2019-02-26T01:44:09.067Z,13.70
2019-02-26T01:46:41.476Z,13.70
2019-02-26T01:49:13.857Z,13.60
2019-02-26T01:51:47.926Z,13.60
2019-02-26T01:54:20.338Z,13.60
2019-02-26T01:56:53.461Z,13.50
2019-02-26T01:59:25.897Z,13.50
2019-02-26T02:01:58.319Z,13.40
2019-02-26T02:04:32.105Z,13.40
2019-02-26T02:07:06.086Z,13.30
2019-02-26T02:09:38.547Z,13.30
2019-02-26T02:12:11.121Z,13.30
2019-02-26T02:14:43.520Z,13.20
2019-02-26T02:17:15.992Z,13.20
2019-02-26T02:19:48.366Z,13.20
2019-02-26T02:22:21.365Z,13.20
2019-02-26T02:24:55.598Z,13.10
2019-02-26T02:27:30.347Z,13.10
2019-02-26T02:30:02.026Z,13.00
2019-02-26T02:32:35.509Z,13.00
2019-02-26T02:35:10.042Z,13.00
2019-02-26T02:37:42.146Z,12.90
2019-02-26T02:40:14.574Z,13.00
2019-02-26T02:42:49.168Z,13.00
2019-02-26T02:45:21.402Z,13.00
2019-02-26T02:47:57.812Z,12.90
2019-02-26T02:50:28.049Z,12.90
2019-02-26T02:53:02.087Z,12.90
2019-02-26T02:55:34.562Z,12.90
2019-02-26T02:58:06.972Z,12.90
2019-02-26T03:00:39.348Z,12.90
2019-02-26T03:03:11.752Z,12.80
2019-02-26T03:05:45.887Z,12.80
2019-02-26T03:08:19.476Z,12.80
2019-02-26T03:10:52.473Z,12.80
2019-02-26T03:13:25.467Z,12.70
2019-02-26T03:16:01.450Z,12.70
2019-02-26T03:18:32.989Z,12.70
2019-02-26T03:21:05.349Z,12.60
2019-02-26T03:23:40.376Z,12.60
2019-02-26T03:26:14.796Z,12.50
2019-02-26T03:28:48.153Z,12.50
2019-02-26T03:31:19.981Z,12.50
2019-02-26T03:33:59.950Z,12.50
2019-02-26T03:36:26.467Z,12.40
2019-02-26T03:39:00.738Z,12.40
2019-02-26T03:41:34.547Z,12.40
2019-02-26T03:44:08.785Z,12.40
2019-02-26T03:46:41.273Z,12.40
2019-02-26T03:49:13.684Z,12.40
2019-02-26T03:51:46.067Z,12.50
2019-02-26T03:54:18.534Z,12.50
2019-02-26T03:56:50.959Z,12.50
2019-02-26T03:59:23.600Z,12.50
2019-02-26T04:01:56.023Z,12.60
2019-02-26T04:04:31.119Z,12.60
2019-02-26T04:07:05.079Z,12.50
2019-02-26T04:09:39.104Z,12.50
2019-02-26T04:12:12.989Z,12.50
2019-02-26T04:15:03.125Z,12.40
2019-02-26T04:17:36.987Z,12.40
2019-02-26T04:20:10.341Z,12.40
2019-02-26T04:22:46.059Z,12.30
2019-02-26T04:25:42.479Z,12.20
2019-02-26T04:28:37.076Z,12.20
2019-02-26T04:32:27.620Z,12.20
2019-02-26T04:35:50.046Z,12.10
2019-02-26T04:39:39.378Z,12.10
2019-02-26T04:42:46.127Z,12.00
2019-02-26T04:46:22.016Z,11.90
2019-02-26T04:48:55.678Z,11.80
2019-02-26T04:51:28.076Z,11.90
2019-02-26T04:54:02.136Z,11.90
2019-02-26T04:56:37.067Z,11.90
2019-02-26T04:59:09.803Z,11.90
2019-02-26T05:01:44.651Z,11.90
2019-02-26T05:04:16.910Z,11.90
2019-02-26T05:06:49.305Z,11.80
2019-02-26T05:09:22.239Z,11.90
2019-02-26T05:11:55.779Z,11.90
2019-02-26T05:14:28.161Z,11.90
2019-02-26T05:17:00.499Z,11.90
2019-02-26T05:19:32.867Z,11.90
2019-02-26T05:22:07.064Z,11.90
2019-02-26T05:24:43.757Z,11.80
2019-02-26T05:27:19.664Z,11.90
2019-02-26T05:29:52.531Z,11.90
2019-02-26T05:32:29.355Z,11.80
2019-02-26T05:34:59.248Z,11.80
2019-02-26T05:37:32.651Z,11.80
2019-02-26T05:40:07.094Z,11.80
2019-02-26T05:42:39.944Z,11.70
2019-02-26T05:45:12.318Z,11.70
2019-02-26T05:47:46.053Z,11.70
2019-02-26T05:50:18.776Z,11.70
2019-02-26T05:52:57.663Z,11.70
2019-02-26T05:55:25.640Z,11.70
2019-02-26T05:57:59.344Z,11.70
2019-02-26T06:00:33.327Z,11.70
2019-02-26T06:03:09.666Z,11.70
2019-02-26T06:05:43.882Z,11.70
2019-02-26T06:08:15.281Z,11.60
2019-02-26T06:10:47.652Z,11.60
2019-02-26T06:13:20.044Z,11.60
2019-02-26T06:15:55.125Z,11.60
2019-02-26T06:18:26.544Z,11.60
2019-02-26T06:21:01.298Z,11.50
2019-02-26T06:23:34.480Z,11.60
2019-02-26T06:26:14.251Z,11.50
2019-02-26T06:28:46.295Z,11.50
2019-02-26T06:31:20.019Z,11.50
2019-02-26T06:33:52.129Z,11.50
2019-02-26T06:36:25.776Z,11.50
2019-02-26T06:38:58.971Z,11.50
2019-02-26T06:41:34.320Z,11.50
2019-02-26T06:44:06.723Z,11.50
2019-02-26T06:46:39.104Z,11.50
2019-02-26T06:49:11.493Z,11.50
2019-02-26T06:51:45.070Z,11.50
2019-02-26T06:54:19.650Z,11.50
2019-02-26T06:56:52.848Z,11.50
2019-02-26T06:59:32.489Z,11.50
2019-02-26T07:02:04.806Z,11.50
2019-02-26T07:04:37.211Z,11.60
2019-02-26T07:07:13.786Z,11.60
2019-02-26T07:09:43.991Z,11.60
2019-02-26T07:12:16.952Z,11.70
2019-02-26T07:14:52.671Z,11.80
2019-02-26T07:17:26.860Z,11.80
2019-02-26T07:20:00.300Z,11.90
2019-02-26T07:22:32.735Z,12.00
2019-02-26T07:25:08.350Z,12.00
2019-02-26T07:27:40.678Z,12.10
2019-02-26T07:30:13.098Z,12.20
2019-02-26T07:32:48.039Z,12.20
2019-02-26T07:35:19.551Z,12.30
2019-02-26T07:37:52.716Z,12.40
2019-02-26T07:40:27.797Z,12.40
2019-02-26T07:43:00.138Z,12.50
2019-02-26T07:45:32.547Z,12.60
2019-02-26T07:48:04.935Z,12.60
2019-02-26T07:50:40.026Z,12.70
2019-02-26T07:53:12.256Z,12.80
2019-02-26T07:55:45.537Z,12.80
2019-02-26T07:58:18.041Z,12.90
2019-02-26T08:00:52.199Z,13.00
2019-02-26T08:03:26.884Z,13.00
2019-02-26T08:05:59.437Z,13.10
2019-02-26T08:08:32.757Z,13.20
2019-02-26T08:11:05.182Z,13.20
2019-02-26T08:13:37.581Z,13.30
2019-02-26T08:16:09.918Z,13.30
2019-02-26T08:18:42.309Z,13.40
2019-02-26T08:21:14.706Z,13.50
2019-02-26T08:23:48.328Z,13.50
2019-02-26T08:26:22.043Z,13.60
2019-02-26T08:28:56.150Z,13.70
2019-02-26T08:31:28.576Z,13.80
2019-02-26T08:34:00.966Z,13.90
2019-02-26T08:36:33.441Z,13.90
2019-02-26T08:39:08.392Z,14.00
2019-02-26T08:41:58.074Z,14.10
2019-02-26T08:44:30.467Z,14.30
2019-02-26T08:47:06.052Z,14.40
2019-02-26T08:49:40.118Z,14.50
2019-02-26T08:52:12.078Z,14.60
2019-02-26T08:54:45.486Z,14.70
2019-02-26T08:57:17.884Z,14.80
2019-02-26T08:59:52.282Z,14.90
2019-02-26T09:02:25.474Z,15.00
2019-02-26T09:04:59.280Z,15.10
2019-02-26T09:07:31.976Z,15.30
2019-02-26T09:10:07.081Z,15.40
2019-02-26T09:12:39.011Z,15.50
2019-02-26T09:15:15.787Z,15.70
2019-02-26T09:17:48.268Z,15.80
2019-02-26T09:20:20.661Z,15.90
2019-02-26T09:22:54.504Z,16.10
2019-02-26T09:25:28.694Z,16.30
2019-02-26T09:28:01.242Z,16.50
2019-02-26T09:30:35.696Z,16.60
2019-02-26T09:33:10.908Z,16.80
2019-02-26T09:35:42.907Z,17.00
2019-02-26T09:38:17.549Z,17.10
2019-02-26T09:40:50.008Z,17.30
2019-02-26T09:43:24.491Z,17.50
2019-02-26T09:45:58.049Z,17.60
2019-02-26T09:48:30.383Z,17.80
2019-02-26T09:51:04.755Z,18.00
2019-02-26T09:53:36.876Z,18.20
2019-02-26T09:56:09.277Z,18.30
2019-02-26T09:58:45.267Z,18.50
2019-02-26T10:01:17.939Z,18.70
2019-02-26T10:03:49.885Z,18.90
2019-02-26T10:06:23.560Z,19.10
2019-02-26T10:08:56.210Z,19.30
2019-02-26T10:11:29.595Z,19.50
2019-02-26T10:14:02.941Z,19.70
2019-02-26T10:16:36.081Z,19.80
2019-02-26T10:19:10.291Z,20.00
2019-02-26T10:21:44.853Z,20.20
2019-02-26T10:24:20.406Z,20.40
2019-02-26T10:26:50.759Z,20.50
2019-02-26T10:29:23.164Z,20.70
2019-02-26T10:31:56.718Z,20.80
2019-02-26T10:34:30.380Z,21.00
2019-02-26T10:37:02.848Z,21.10
2019-02-26T10:39:36.329Z,21.20
2019-02-26T10:42:08.742Z,21.30
2019-02-26T10:44:42.684Z,21.40
2019-02-26T10:47:15.214Z,21.40
2019-02-26T10:49:49.008Z,21.40
2019-02-26T10:52:23.883Z,21.50
2019-02-26T10:54:55.811Z,21.50
2019-02-26T10:57:28.808Z,21.50
2019-02-26T11:00:04.850Z,21.50
2019-02-26T11:02:38.051Z,21.50
2019-02-26T11:05:11.375Z,21.50
2019-02-26T11:07:44.556Z,21.50
2019-02-26T11:10:19.570Z,21.40
2019-02-26T11:12:53.539Z,21.40
2019-02-26T11:15:26.941Z,21.30
2019-02-26T11:17:59.216Z,21.30
2019-02-26T11:20:34.081Z,21.30
2019-02-26T11:23:08.393Z,21.20
2019-02-26T11:25:40.150Z,21.20
2019-02-26T11:28:13.087Z,21.20
2019-02-26T11:30:46.539Z,21.20
2019-02-26T11:33:19.605Z,21.10
2019-02-26T11:35:51.990Z,21.10
2019-02-26T11:38:24.405Z,21.10
2019-02-26T11:40:56.808Z,21.00
2019-02-26T11:43:29.220Z,21.00
2019-02-26T11:46:03.716Z,21.00
2019-02-26T11:48:35.738Z,20.90
2019-02-26T11:51:08.117Z,20.90
2019-02-26T11:53:40.438Z,20.90
2019-02-26T11:56:13.628Z,20.90
2019-02-26T11:58:47.007Z,20.80
2019-02-26T12:01:19.471Z,20.80
2019-02-26T12:03:55.769Z,20.80
2019-02-26T12:06:25.965Z,20.80
2019-02-26T12:08:58.363Z,20.80
2019-02-26T12:11:30.734Z,20.80
2019-02-26T12:14:03.171Z,20.70
2019-02-26T12:16:35.568Z,20.70
2019-02-26T12:19:08.695Z,20.70
2019-02-26T12:21:42.214Z,20.70
2019-02-26T12:24:14.610Z,20.60
2019-02-26T12:26:47.715Z,20.60
2019-02-26T12:29:23.447Z,20.60
2019-02-26T12:31:55.742Z,20.60
2019-02-26T12:34:29.262Z,20.60
2019-02-26T12:37:02.635Z,20.60
2019-02-26T12:39:35.735Z,20.50
2019-02-26T12:42:10.675Z,20.50
2019-02-26T12:44:45.209Z,20.50
2019-02-26T12:47:18.740Z,20.50
2019-02-26T12:49:50.455Z,20.50
2019-02-26T12:52:25.120Z,20.50
2019-02-26T12:54:57.834Z,20.40
2019-02-26T12:57:31.615Z,20.40
2019-02-26T13:00:06.890Z,20.40
2019-02-26T13:02:43.202Z,20.40
2019-02-26T13:05:18.936Z,20.40
2019-02-26T13:07:48.708Z,20.40
2019-02-26T13:10:22.224Z,20.40
2019-02-26T13:12:59.321Z,20.40
2019-02-26T13:15:28.860Z,20.40
2019-02-26T13:18:01.267Z,20.40
2019-02-26T13:20:33.673Z,20.40
2019-02-26T13:23:21.885Z,20.40
2019-02-26T13:25:40.074Z,20.40
2019-02-26T13:28:12.488Z,20.40
2019-02-26T13:30:44.902Z,20.40
2019-02-26T13:33:18.206Z,20.40
2019-02-26T13:35:58.201Z,20.40
2019-02-26T13:38:34.148Z,20.40
2019-02-26T13:41:19.903Z,20.40
2019-02-26T13:43:33.879Z,20.40
2019-02-26T13:46:06.290Z,20.40
2019-02-26T13:48:38.719Z,20.40
2019-02-26T13:51:11.116Z,20.40
2019-02-26T13:53:43.494Z,20.40
2019-02-26T13:56:15.913Z,20.30
2019-02-26T13:58:48.302Z,20.30
2019-02-26T14:01:20.699Z,20.30
2019-02-26T14:03:53.142Z,20.30
2019-02-26T14:06:25.562Z,20.30
2019-02-26T14:08:58.138Z,20.30
2019-02-26T14:11:30.449Z,20.30
2019-02-26T14:14:02.828Z,20.30
2019-02-26T14:16:35.570Z,20.30
2019-02-26T14:19:07.984Z,20.30
2019-02-26T14:21:40.387Z,20.30
2019-02-26T14:24:12.758Z,20.30
2019-02-26T14:26:45.157Z,20.30
2019-02-26T14:29:17.660Z,20.30
2019-02-26T14:31:50.155Z,20.30
2019-02-26T14:34:22.617Z,20.30
2019-02-26T14:36:55.807Z,20.30
2019-02-26T14:39:28.280Z,20.30
2019-02-26T14:42:00.706Z,20.30
2019-02-26T14:44:33.082Z,20.20
2019-02-26T14:47:05.775Z,20.20
2019-02-26T14:49:38.165Z,20.20
2019-02-26T14:52:10.511Z,20.20
2019-02-26T14:54:42.905Z,20.20
2019-02-26T14:57:15.866Z,20.20
2019-02-26T14:59:48.258Z,20.20
2019-02-26T15:02:20.681Z,20.20
2019-02-26T15:04:53.070Z,20.20
2019-02-26T15:07:25.475Z,20.20
2019-02-26T15:09:57.861Z,20.20
2019-02-26T15:12:30.285Z,20.20
2019-02-26T15:15:04.439Z,20.20
2019-02-26T15:17:36.941Z,20.20
2019-02-26T15:20:13.405Z,20.10
2019-02-26T15:22:46.005Z,20.10
2019-02-26T15:25:21.017Z,20.10
2019-02-26T15:27:54.389Z,20.10
2019-02-26T15:30:28.365Z,20.10
2019-02-26T15:33:00.788Z,20.10
2019-02-26T15:35:33.154Z,20.10
2019-02-26T15:38:05.812Z,20.10
2019-02-26T15:40:38.224Z,20.10
2019-02-26T15:43:10.703Z,20.10
2019-02-26T15:45:51.591Z,20.10
2019-02-26T15:48:17.230Z,20.10
2019-02-26T15:50:49.635Z,20.10
2019-02-26T15:53:23.864Z,20.10
2019-02-26T15:55:59.155Z,20.10
2019-02-26T15:58:30.205Z,20.10
2019-02-26T16:01:02.596Z,20.10
2019-02-26T16:03:35.120Z,20.00
2019-02-26T16:06:07.576Z,20.00
2019-02-26T16:08:41.280Z,20.00
2019-02-26T16:11:14.064Z,20.00
2019-02-26T16:13:46.751Z,20.00
2019-02-26T16:16:19.134Z,20.00
2019-02-26T16:18:51.542Z,19.90
2019-02-26T16:21:25.602Z,20.00
2019-02-26T16:23:58.621Z,19.90
2019-02-26T16:26:31.015Z,19.90
2019-02-26T16:29:03.725Z,19.90
2019-02-26T16:31:36.124Z,19.90
2019-02-26T16:34:08.551Z,19.90
2019-02-26T16:36:40.927Z,19.90
2019-02-26T16:39:13.323Z,19.90
2019-02-26T16:41:45.741Z,19.90
2019-02-26T16:44:18.326Z,19.80
2019-02-26T16:46:50.700Z,19.80
2019-02-26T16:49:23.093Z,19.80
2019-02-26T16:51:55.664Z,19.80
2019-02-26T16:54:28.244Z,19.70
2019-02-26T16:57:00.565Z,19.70
2019-02-26T16:59:32.963Z,19.70
2019-02-26T17:02:05.342Z,19.70
2019-02-26T17:04:38.585Z,19.70
2019-02-26T17:07:12.690Z,19.60
2019-02-26T17:09:45.182Z,19.60
2019-02-26T17:12:17.573Z,19.60
2019-02-26T17:14:51.092Z,19.50
2019-02-26T17:17:23.616Z,19.50
2019-02-26T17:19:56.091Z,19.50
2019-02-26T17:22:28.585Z,19.50
2019-02-26T17:25:01.276Z,19.40
2019-02-26T17:27:34.046Z,19.40
2019-02-26T17:30:06.962Z,19.30
2019-02-26T17:32:39.359Z,19.30
2019-02-26T17:35:11.867Z,19.30
2019-02-26T17:37:44.249Z,19.20
2019-02-26T17:40:17.911Z,19.20
2019-02-26T17:42:51.225Z,19.10
2019-02-26T17:45:24.571Z,19.10
2019-02-26T17:47:57.526Z,19.10
2019-02-26T17:50:32.894Z,19.00
2019-02-26T17:53:05.395Z,19.00
2019-02-26T17:55:38.016Z,18.90
2019-02-26T17:58:10.812Z,18.90
2019-02-26T18:00:45.119Z,18.90
2019-02-26T18:03:18.140Z,18.80
2019-02-26T18:05:51.734Z,18.80
2019-02-26T18:08:24.802Z,18.70
2019-02-26T18:10:57.342Z,18.70
2019-02-26T18:13:30.904Z,18.70
2019-02-26T18:16:09.145Z,18.60
2019-02-26T18:18:38.903Z,18.60
2019-02-26T18:21:11.330Z,18.50
2019-02-26T18:23:44.285Z,18.50
2019-02-26T18:26:18.436Z,18.50
2019-02-26T18:28:50.891Z,18.40
2019-02-26T18:31:26.418Z,18.40
2019-02-26T18:33:58.518Z,18.30
2019-02-26T18:36:32.710Z,18.30
2019-02-26T18:39:07.101Z,18.20
2019-02-26T18:41:40.389Z,18.20
2019-02-26T18:44:13.485Z,18.20
2019-02-26T18:46:47.480Z,18.10
2019-02-26T18:49:21.836Z,18.10
2019-02-26T18:51:55.311Z,18.00
2019-02-26T18:54:29.391Z,18.00
2019-02-26T18:57:01.793Z,17.90
2019-02-26T18:59:35.369Z,17.90
2019-02-26T19:02:09.560Z,17.80
2019-02-26T19:04:42.014Z,17.80
2019-02-26T19:07:15.322Z,17.80
2019-02-26T19:09:49.365Z,17.70
2019-02-26T19:12:23.326Z,17.70
2019-02-26T19:14:56.821Z,17.70
2019-02-26T19:17:29.303Z,17.60
2019-02-26T19:20:01.733Z,17.60
2019-02-26T19:22:37.289Z,17.50
2019-02-26T19:25:10.543Z,17.50
2019-02-26T19:27:43.555Z,17.40
2019-02-26T19:30:18.116Z,17.40
2019-02-26T19:32:51.007Z,17.30
2019-02-26T19:35:24.061Z,17.30
2019-02-26T19:37:58.463Z,17.30
2019-02-26T19:40:38.653Z,17.20
2019-02-26T19:43:09.812Z,17.20
2019-02-26T19:45:44.816Z,17.20
2019-02-26T19:48:18.027Z,17.20
2019-02-26T19:50:50.885Z,17.10
2019-02-26T19:53:23.805Z,17.10
2019-02-26T19:55:56.502Z,17.10
2019-02-26T19:58:29.430Z,17.10
2019-02-26T20:01:03.490Z,17.00
2019-02-26T20:03:40.099Z,17.00
2019-02-26T20:06:11.536Z,16.90
2019-02-26T20:08:47.237Z,16.80
2019-02-26T20:11:22.372Z,16.80
2019-02-26T20:14:04.350Z,16.80
2019-02-26T20:16:31.163Z,16.70
2019-02-26T20:19:06.140Z,16.60
2019-02-26T20:21:39.435Z,16.60
2019-02-26T20:24:16.250Z,16.60
2019-02-26T20:26:49.940Z,16.50
2019-02-26T20:29:23.878Z,16.50
2019-02-26T20:31:57.787Z,16.50
2019-02-26T20:34:30.682Z,16.40
2019-02-26T20:37:04.596Z,16.40
2019-02-26T20:39:40.886Z,16.40
2019-02-26T20:42:13.639Z,16.40
2019-02-26T20:44:46.835Z,16.40
2019-02-26T20:47:19.731Z,16.30
2019-02-26T20:49:52.487Z,16.30
2019-02-26T20:52:25.392Z,16.30
2019-02-26T20:54:58.758Z,16.30
2019-02-26T20:57:31.296Z,16.20
2019-02-26T21:00:04.513Z,16.20
2019-02-26T21:02:38.429Z,16.20
2019-02-26T21:05:11.076Z,16.20
2019-02-26T21:07:44.037Z,16.10
2019-02-26T21:10:17.825Z,16.10
2019-02-26T21:12:50.879Z,16.10
2019-02-26T21:15:23.945Z,16.00
2019-02-26T21:17:58.613Z,16.00
2019-02-26T21:20:31.086Z,16.00
2019-02-26T21:23:04.179Z,16.00
2019-02-26T21:25:38.157Z,16.00
2019-02-26T21:28:10.943Z,16.00
2019-02-26T21:30:45.601Z,16.00
2019-02-26T21:33:19.012Z,15.90
2019-02-26T21:35:53.894Z,15.90
2019-02-26T21:38:26.022Z,15.90
2019-02-26T21:40:59.047Z,15.80
2019-02-26T21:43:34.636Z,15.70
2019-02-26T21:46:06.714Z,15.70
2019-02-26T21:48:39.501Z,15.70
2019-02-26T21:51:12.630Z,15.70
2019-02-26T21:53:46.672Z,15.60
2019-02-26T21:56:20.922Z,15.60
2019-02-26T21:58:56.887Z,15.60
2019-02-26T22:01:30.194Z,15.50
2019-02-26T22:04:03.111Z,15.50
2019-02-26T22:06:37.146Z,15.40
2019-02-26T22:09:10.237Z,15.40
2019-02-26T22:11:43.639Z,15.40
2019-02-26T22:14:17.840Z,15.30
2019-02-26T22:16:51.498Z,15.30
2019-02-26T22:19:26.011Z,15.20
2019-02-26T22:21:59.683Z,15.20
2019-02-26T22:24:32.780Z,15.10
2019-02-26T22:27:06.107Z,15.10
2019-02-26T22:29:38.511Z,15.10
2019-02-26T22:32:10.916Z,15.00
2019-02-26T22:34:44.861Z,15.00
2019-02-26T22:37:17.470Z,14.90
2019-02-26T22:40:10.419Z,14.90
2019-02-26T22:42:43.435Z,14.90
2019-02-26T22:45:17.604Z,14.80
2019-02-26T22:47:50.622Z,14.80
2019-02-26T22:50:24.915Z,14.80
2019-02-26T22:53:03.764Z,14.80
2019-02-26T22:55:36.285Z,14.80
2019-02-26T22:58:09.393Z,14.70
2019-02-26T23:01:30.806Z,14.70
2019-02-26T23:04:06.277Z,14.70
2019-02-26T23:06:39.341Z,14.60
2019-02-26T23:09:21.376Z,14.50
2019-02-26T23:11:54.634Z,14.50
2019-02-26T23:14:28.400Z,14.50
2019-02-26T23:17:01.640Z,14.50
2019-02-26T23:19:36.671Z,14.50
2019-02-26T23:22:09.950Z,14.50
2019-02-26T23:24:44.434Z,14.50
2019-02-26T23:27:18.374Z,14.50
2019-02-26T23:29:50.894Z,14.50
2019-02-26T23:32:24.106Z,14.40
2019-02-26T23:35:05.679Z,14.40
2019-02-26T23:37:39.630Z,14.40
2019-02-26T23:40:12.929Z,14.40
2019-02-26T23:42:46.005Z,14.30
2019-02-26T23:45:19.184Z,14.30
2019-02-26T23:47:52.395Z,14.30
2019-02-26T23:50:25.397Z,14.30
2019-02-26T23:53:00.939Z,14.30
2019-02-26T23:55:34.261Z,14.30
2019-02-26T23:58:07.188Z,14.20
